createdAt,value
2023-02-06T00:00:54.207Z,39.65
2023-02-06T00:03:21.372Z,32.10
2023-02-06T00:05:55.706Z,35.92
2023-02-06T00:08:22.845Z,26.90
2023-02-06T00:10:49.966Z,31.67
2023-02-06T00:13:18.665Z,31.13
2023-02-06T00:15:46.154Z,40.47
2023-02-06T00:18:13.228Z,28.85
2023-02-06T00:20:40.522Z,36.92
2023-02-06T00:23:07.497Z,31.73
2023-02-06T00:25:34.945Z,34.45
2023-02-06T00:28:05.329Z,34.22
2023-02-06T00:30:33.823Z,33.10
2023-02-06T00:33:00.810Z,30.63
2023-02-06T00:35:27.916Z,29.42
2023-02-06T00:37:54.915Z,36.45
2023-02-06T00:40:21.977Z,26.60
2023-02-06T00:42:48.972Z,34.20
2023-02-06T00:45:16.202Z,33.20
2023-02-06T00:47:44.555Z,33.92
2023-02-06T00:50:12.089Z,31.20
2023-02-06T00:52:39.217Z,28.95
2023-02-06T00:55:07.161Z,26.63
2023-02-06T00:57:34.217Z,35.47
2023-02-06T01:00:01.325Z,30.63
2023-02-06T01:02:28.339Z,34.92
2023-02-06T01:04:57.332Z,33.42
2023-02-06T01:07:24.402Z,37.08
2023-02-06T01:09:51.568Z,29.05
2023-02-06T01:12:18.744Z,47.38
2023-02-06T01:14:45.763Z,32.63
2023-02-06T01:17:12.992Z,38.92
2023-02-06T01:19:40.238Z,22.85
2023-02-06T01:22:08.640Z,40.38
2023-02-06T01:24:36.348Z,35.10
2023-02-06T01:27:03.650Z,23.30
2023-02-06T01:29:30.647Z,26.77
2023-02-06T01:31:57.652Z,34.10
2023-02-06T01:34:24.629Z,38.88
2023-02-06T01:36:51.667Z,32.55
2023-02-06T01:39:20.067Z,31.50
2023-02-06T01:41:47.134Z,42.63
2023-02-06T01:44:17.898Z,33.45
2023-02-06T01:46:46.698Z,36.08
2023-02-06T01:49:19.207Z,32.30
2023-02-06T01:51:47.084Z,37.22
2023-02-06T01:54:15.602Z,29.13
2023-02-06T01:56:48.338Z,38.20
2023-02-06T01:59:16.015Z,40.05
2023-02-06T02:01:43.806Z,33.13
2023-02-06T02:04:16.172Z,37.08
2023-02-06T02:06:45.671Z,34.55
2023-02-06T02:09:14.362Z,32.55
2023-02-06T02:11:42.849Z,37.85
2023-02-06T02:14:13.582Z,38.30
2023-02-06T02:16:48.205Z,35.97
2023-02-06T02:19:42.072Z,39.50
2023-02-06T02:22:43.043Z,37.88
2023-02-06T02:25:47.957Z,37.50
2023-02-06T02:28:45.834Z,40.70
2023-02-06T02:31:34.756Z,30.98
2023-02-06T02:34:41.025Z,36.97
2023-02-06T02:39:52.818Z,36.40
2023-02-06T02:42:26.495Z,36.85
2023-02-06T02:44:57.457Z,36.60
2023-02-06T02:47:30.463Z,38.38
2023-02-06T02:50:00.695Z,44.15
2023-02-06T02:52:29.267Z,29.15
2023-02-06T02:54:56.208Z,41.13
2023-02-06T02:57:29.069Z,45.25
2023-02-06T02:59:59.161Z,36.88
2023-02-06T03:02:32.236Z,42.53
2023-02-06T03:05:02.557Z,29.00
2023-02-06T03:07:36.956Z,32.58
2023-02-06T03:10:14.841Z,28.13
2023-02-06T03:12:48.631Z,34.88
2023-02-06T03:15:25.713Z,33.75
2023-02-06T03:17:59.518Z,40.80
2023-02-06T03:20:27.844Z,34.58
2023-02-06T03:22:58.569Z,39.65
2023-02-06T03:25:30.816Z,33.58
2023-02-06T03:27:59.730Z,39.33
2023-02-06T03:30:29.128Z,38.90
2023-02-06T03:33:01.538Z,32.28
2023-02-06T03:35:32.576Z,30.70
2023-02-06T03:38:01.777Z,30.42
2023-02-06T03:40:29.339Z,33.83
2023-02-06T03:43:00.953Z,44.28
2023-02-06T03:45:31.170Z,34.05
2023-02-06T03:48:01.874Z,37.72
2023-02-06T03:50:30.399Z,31.63
2023-02-06T03:53:02.113Z,37.78
2023-02-06T03:55:29.199Z,30.15
2023-02-06T03:58:02.093Z,35.78
2023-02-06T04:00:30.938Z,34.53
2023-02-06T04:02:59.401Z,36.75
2023-02-06T04:05:27.404Z,30.77
2023-02-06T04:07:54.408Z,31.58
2023-02-06T04:10:25.316Z,28.77
2023-02-06T04:12:53.379Z,27.20
2023-02-06T04:15:20.586Z,38.15
2023-02-06T04:17:59.348Z,34.10
2023-02-06T04:20:27.901Z,35.13
2023-02-06T04:22:54.907Z,37.65
2023-02-06T04:25:23.433Z,33.72
2023-02-06T04:27:50.829Z,29.90
2023-02-06T04:30:18.703Z,31.33
2023-02-06T04:32:46.030Z,36.42
2023-02-06T04:35:13.033Z,41.20
2023-02-06T04:37:40.042Z,24.10
2023-02-06T04:40:07.659Z,33.38
2023-02-06T04:42:36.026Z,34.63
2023-02-06T04:45:03.157Z,36.35
2023-02-06T04:47:30.137Z,33.92
2023-02-06T04:49:57.239Z,36.42
2023-02-06T04:52:24.206Z,25.23
2023-02-06T04:54:51.289Z,31.63
2023-02-06T04:57:18.309Z,39.65
2023-02-06T04:59:46.784Z,36.97
2023-02-06T05:02:13.778Z,37.65
2023-02-06T05:04:40.827Z,36.47
2023-02-06T05:07:08.140Z,31.65
2023-02-06T05:09:35.194Z,39.05
2023-02-06T05:12:02.254Z,43.70
2023-02-06T05:14:29.277Z,43.28
2023-02-06T05:16:57.618Z,34.90
2023-02-06T05:19:24.640Z,39.30
2023-02-06T05:21:51.677Z,38.25
2023-02-06T05:24:18.752Z,36.33
2023-02-06T05:26:46.033Z,43.28
2023-02-06T05:29:13.053Z,38.28
2023-02-06T05:31:40.125Z,39.20
2023-02-06T05:34:09.816Z,39.47
2023-02-06T05:36:36.894Z,36.97
2023-02-06T05:39:04.070Z,40.72
2023-02-06T05:41:31.286Z,32.75
2023-02-06T05:43:58.301Z,37.15
2023-02-06T05:46:25.550Z,49.53
2023-02-06T05:48:52.665Z,45.30
2023-02-06T05:51:21.034Z,35.67
2023-02-06T05:53:48.131Z,41.83
2023-02-06T05:56:15.177Z,41.50
2023-02-06T05:58:42.196Z,45.75
2023-02-06T06:01:10.886Z,43.00
2023-02-06T06:03:37.935Z,39.17
2023-02-06T06:06:05.833Z,38.30
2023-02-06T06:08:34.314Z,52.47
2023-02-06T06:11:02.169Z,47.50
2023-02-06T06:13:29.638Z,33.83
2023-02-06T06:15:56.805Z,38.67
2023-02-06T06:18:23.967Z,50.13
2023-02-06T06:20:51.121Z,44.10
2023-02-06T06:23:18.173Z,47.45
2023-02-06T06:25:48.044Z,45.13
2023-02-06T06:28:15.517Z,52.17
2023-02-06T06:30:42.902Z,39.63
2023-02-06T06:33:10.018Z,46.78
2023-02-06T06:35:37.959Z,45.75
2023-02-06T06:38:05.233Z,48.42
2023-02-06T06:40:32.337Z,45.35
2023-02-06T06:43:00.726Z,45.17
2023-02-06T06:45:27.797Z,41.67
2023-02-06T06:47:54.873Z,48.63
2023-02-06T06:50:21.936Z,38.17
2023-02-06T06:52:49.073Z,46.03
2023-02-06T06:55:16.421Z,38.55
2023-02-06T06:57:43.561Z,49.88
2023-02-06T07:00:13.991Z,48.20
2023-02-06T07:02:41.589Z,41.95
2023-02-06T07:05:09.411Z,41.55
2023-02-06T07:07:36.459Z,43.92
2023-02-06T07:10:03.549Z,46.70
2023-02-06T07:12:30.568Z,33.63
2023-02-06T07:14:57.552Z,45.90
2023-02-06T07:17:26.265Z,40.15
2023-02-06T07:19:53.361Z,43.08
2023-02-06T07:22:21.216Z,34.22
2023-02-06T07:24:48.633Z,34.35
2023-02-06T07:27:15.800Z,34.33
2023-02-06T07:29:42.803Z,30.63
2023-02-06T07:32:10.578Z,42.28
2023-02-06T07:34:39.080Z,35.70
2023-02-06T07:37:06.341Z,42.00
2023-02-06T07:39:33.604Z,41.35
2023-02-06T07:42:00.798Z,36.33
2023-02-06T07:44:27.985Z,32.97
2023-02-06T07:46:55.101Z,39.45
2023-02-06T07:49:22.111Z,35.25
2023-02-06T07:51:50.918Z,50.22
2023-02-06T07:54:20.535Z,44.97
2023-02-06T07:56:47.881Z,41.70
2023-02-06T07:59:15.007Z,46.33
2023-02-06T08:01:42.321Z,41.33
2023-02-06T08:04:10.181Z,45.05
2023-02-06T08:06:40.021Z,42.28
2023-02-06T08:09:11.961Z,49.13
2023-02-06T08:11:38.971Z,42.33
2023-02-06T08:14:06.086Z,50.85
2023-02-06T08:16:33.212Z,42.75
2023-02-06T08:19:00.340Z,40.35
2023-02-06T08:21:27.424Z,39.40
2023-02-06T08:23:55.538Z,46.10
2023-02-06T08:26:25.024Z,36.45
2023-02-06T08:28:52.962Z,45.13
2023-02-06T08:31:22.475Z,44.42
2023-02-06T08:33:50.270Z,37.75
2023-02-06T08:36:18.428Z,45.83
2023-02-06T08:38:45.769Z,45.33
2023-02-06T08:41:17.936Z,44.17
2023-02-06T08:43:47.872Z,43.53
2023-02-06T08:46:15.833Z,37.60
2023-02-06T08:48:42.935Z,44.95
2023-02-06T08:51:12.558Z,38.42
2023-02-06T08:53:39.667Z,47.90
2023-02-06T08:56:08.858Z,48.53
2023-02-06T08:58:36.863Z,47.00
2023-02-06T09:01:08.002Z,38.70
2023-02-06T09:03:35.124Z,38.80
2023-02-06T09:06:09.806Z,45.92
2023-02-06T09:11:08.192Z,38.10
2023-02-06T09:13:36.003Z,39.15
2023-02-06T09:16:03.715Z,34.70
2023-02-06T09:18:32.387Z,44.42
2023-02-06T09:21:07.516Z,34.20
2023-02-06T09:23:34.929Z,43.70
2023-02-06T09:26:01.986Z,40.92
2023-02-06T09:28:29.133Z,45.30
2023-02-06T09:30:56.275Z,40.92
2023-02-06T09:33:23.950Z,43.45
2023-02-06T09:36:01.629Z,40.95
2023-02-06T09:38:29.100Z,39.67
2023-02-06T09:40:56.737Z,41.97
2023-02-06T09:43:24.416Z,44.88
2023-02-06T09:45:57.590Z,41.53
2023-02-06T09:48:29.249Z,40.47
2023-02-06T09:51:06.461Z,43.33
2023-02-06T09:53:44.549Z,45.85
2023-02-06T09:56:21.052Z,44.28
2023-02-06T09:58:57.270Z,36.42
2023-02-06T10:01:32.442Z,39.60
2023-02-06T10:04:17.398Z,51.85
2023-02-06T10:06:51.681Z,48.47
2023-02-06T10:09:25.574Z,45.90
2023-02-06T10:11:56.160Z,44.38
2023-02-06T10:14:31.905Z,46.35
2023-02-06T10:17:02.447Z,42.22
2023-02-06T10:19:40.006Z,43.67
2023-02-06T10:22:14.584Z,47.38
2023-02-06T10:24:47.889Z,45.03
2023-02-06T10:27:15.647Z,56.78
2023-02-06T10:29:46.653Z,53.28
2023-02-06T10:32:29.438Z,53.75
2023-02-06T10:35:22.991Z,42.33
2023-02-06T10:38:17.042Z,61.25
2023-02-06T10:40:51.252Z,49.38
2023-02-06T10:43:26.682Z,45.10
2023-02-06T10:46:05.565Z,41.20
2023-02-06T10:48:38.286Z,46.45
2023-02-06T10:51:17.734Z,65.30
2023-02-06T10:53:51.136Z,133.07
2023-02-06T10:56:22.161Z,42.25
2023-02-06T10:58:54.547Z,39.53
2023-02-06T11:01:26.629Z,34.88
2023-02-06T11:04:00.051Z,40.10
2023-02-06T11:06:29.818Z,38.63
2023-02-06T11:08:58.720Z,35.78
2023-02-06T11:11:28.585Z,60.95
2023-02-06T11:14:00.973Z,39.10
2023-02-06T11:16:29.588Z,32.40
2023-02-06T11:19:00.630Z,28.85
2023-02-06T11:21:47.319Z,30.67
2023-02-06T11:24:17.376Z,31.38
2023-02-06T11:26:48.879Z,29.77
2023-02-06T11:29:18.294Z,35.72
2023-02-06T11:31:48.693Z,40.45
2023-02-06T11:34:29.804Z,33.28
2023-02-06T11:36:59.232Z,29.33
2023-02-06T11:39:30.355Z,31.75
2023-02-06T11:42:01.128Z,30.35
2023-02-06T11:44:34.846Z,21.95
2023-02-06T11:47:20.293Z,26.38
2023-02-06T11:49:47.532Z,31.45
2023-02-06T11:52:28.753Z,31.80
2023-02-06T11:55:01.014Z,27.33
2023-02-06T11:57:28.982Z,31.15
2023-02-06T11:59:58.243Z,30.02
2023-02-06T12:02:29.443Z,19.67
2023-02-06T12:05:04.031Z,20.23
2023-02-06T12:07:34.437Z,26.25
2023-02-06T12:10:03.032Z,22.60
2023-02-06T12:12:34.021Z,20.70
2023-02-06T12:15:23.546Z,21.63
2023-02-06T12:17:56.670Z,18.70
2023-02-06T12:20:28.094Z,22.35
2023-02-06T12:23:00.593Z,24.60
2023-02-06T12:25:34.457Z,22.75
2023-02-06T12:28:09.404Z,25.70
2023-02-06T12:30:40.482Z,24.35
2023-02-06T12:33:12.850Z,22.17
2023-02-06T12:35:44.775Z,25.13
2023-02-06T12:38:19.510Z,30.58
2023-02-06T12:41:01.041Z,22.15
2023-02-06T12:43:29.999Z,30.85
2023-02-06T12:46:01.516Z,23.42
2023-02-06T12:48:36.115Z,26.85
2023-02-06T12:51:10.907Z,24.30
2023-02-06T12:53:40.644Z,31.92
2023-02-06T12:56:20.178Z,25.88
2023-02-06T12:58:54.574Z,24.00
2023-02-06T13:01:38.503Z,22.00
2023-02-06T13:04:07.226Z,22.13
2023-02-06T13:06:43.693Z,25.27
2023-02-06T13:09:19.158Z,25.10
2023-02-06T13:11:47.937Z,25.40
2023-02-06T13:14:20.625Z,20.50
2023-02-06T13:16:54.096Z,23.08
2023-02-06T13:19:27.889Z,22.60
2023-02-06T13:22:31.074Z,25.58
2023-02-06T13:24:58.247Z,24.77
2023-02-06T13:27:38.332Z,26.80
2023-02-06T13:30:45.936Z,24.35
2023-02-06T13:33:17.373Z,18.50
2023-02-06T13:36:00.342Z,24.65
2023-02-06T13:38:36.199Z,19.90
2023-02-06T13:41:30.462Z,24.77
2023-02-06T13:44:03.481Z,17.52
2023-02-06T13:47:09.126Z,15.98
2023-02-06T13:50:04.876Z,20.20
2023-02-06T13:55:14.796Z,23.65
2023-02-06T13:57:54.935Z,19.98
2023-02-06T14:00:26.473Z,17.58
2023-02-06T14:02:56.316Z,19.05
2023-02-06T14:05:41.249Z,18.60
2023-02-06T14:08:18.837Z,19.65
2023-02-06T14:11:17.611Z,20.25
2023-02-06T14:14:09.512Z,13.95
2023-02-06T14:16:53.289Z,16.92
2023-02-06T14:19:29.643Z,21.90
2023-02-06T14:22:04.380Z,17.85
2023-02-06T14:24:49.618Z,17.45
2023-02-06T14:27:30.849Z,20.42
2023-02-06T14:30:06.809Z,18.77
2023-02-06T14:32:47.356Z,15.07
2023-02-06T14:35:50.440Z,16.63
2023-02-06T14:38:41.738Z,15.93
2023-02-06T14:41:09.823Z,15.13
2023-02-06T14:43:40.716Z,16.88
2023-02-06T14:46:12.221Z,20.08
2023-02-06T14:48:46.035Z,17.65
2023-02-06T14:51:23.420Z,20.08
2023-02-06T14:53:56.087Z,17.85
2023-02-06T14:56:29.236Z,22.48
2023-02-06T14:58:56.660Z,24.13
2023-02-06T15:01:27.203Z,18.40
2023-02-06T15:04:10.450Z,23.40
2023-02-06T15:06:39.500Z,18.75
2023-02-06T15:09:07.666Z,22.90
2023-02-06T15:11:35.055Z,20.75
2023-02-06T15:14:04.225Z,22.00
2023-02-06T15:16:44.565Z,15.45
2023-02-06T15:19:19.020Z,15.95
2023-02-06T15:21:49.341Z,16.90
2023-02-06T15:24:40.398Z,18.15
2023-02-06T15:27:15.209Z,14.70
2023-02-06T15:29:48.892Z,18.30
2023-02-06T15:32:22.785Z,18.50
2023-02-06T15:34:51.254Z,13.65
2023-02-06T15:37:23.544Z,20.38
2023-02-06T15:39:51.690Z,18.33
2023-02-06T15:42:21.300Z,16.58
2023-02-06T15:44:49.814Z,12.10
2023-02-06T15:47:19.193Z,18.70
2023-02-06T15:49:48.648Z,15.10
2023-02-06T15:52:37.379Z,15.98
2023-02-06T15:55:05.002Z,26.20
2023-02-06T15:57:34.825Z,16.15
2023-02-06T16:00:02.843Z,22.92
2023-02-06T16:02:33.736Z,21.40
2023-02-06T16:05:02.148Z,21.42
2023-02-06T16:07:33.274Z,20.23
2023-02-06T16:10:11.272Z,25.30
2023-02-06T16:12:41.308Z,20.45
2023-02-06T16:15:26.025Z,22.08
2023-02-06T16:17:53.424Z,17.67
2023-02-06T16:20:36.647Z,22.98
2023-02-06T16:23:23.578Z,20.45
2023-02-06T16:26:01.771Z,22.08
2023-02-06T16:28:29.218Z,22.25
2023-02-06T16:30:59.409Z,22.30
2023-02-06T16:33:33.881Z,18.95
2023-02-06T16:36:01.018Z,26.98
2023-02-06T16:38:29.724Z,24.40
2023-02-06T16:40:56.954Z,19.98
2023-02-06T16:43:25.867Z,23.17
2023-02-06T16:45:52.984Z,23.60
2023-02-06T16:48:19.999Z,26.58
2023-02-06T16:50:48.467Z,21.58
2023-02-06T16:53:21.786Z,28.45
2023-02-06T16:55:50.721Z,15.68
2023-02-06T16:58:20.882Z,24.90
2023-02-06T17:00:48.159Z,17.80
2023-02-06T17:03:17.337Z,16.40
2023-02-06T17:05:45.591Z,15.77
2023-02-06T17:08:18.249Z,16.98
2023-02-06T17:10:45.793Z,23.50
2023-02-06T17:13:16.489Z,16.45
2023-02-06T17:15:44.337Z,17.17
2023-02-06T17:18:13.192Z,17.85
2023-02-06T17:20:42.175Z,18.38
2023-02-06T17:23:09.501Z,17.52
2023-02-06T17:25:37.139Z,21.00
2023-02-06T17:28:05.830Z,14.25
2023-02-06T17:30:36.513Z,17.58
2023-02-06T17:33:04.314Z,14.68
2023-02-06T17:35:31.872Z,15.60
2023-02-06T17:37:59.400Z,18.92
2023-02-06T17:40:28.761Z,14.65
2023-02-06T17:42:56.813Z,19.10
2023-02-06T17:45:24.193Z,21.17
2023-02-06T17:47:53.317Z,20.38
2023-02-06T17:50:21.959Z,19.70
2023-02-06T17:52:49.100Z,18.90
2023-02-06T17:55:16.236Z,22.83
2023-02-06T17:57:43.218Z,23.58
2023-02-06T18:00:14.467Z,21.23
2023-02-06T18:02:41.532Z,21.80
2023-02-06T18:05:10.731Z,23.92
2023-02-06T18:07:38.596Z,17.83
2023-02-06T18:10:08.501Z,17.63
2023-02-06T18:12:35.635Z,15.35
2023-02-06T18:15:03.056Z,19.30
2023-02-06T18:17:30.396Z,17.17
2023-02-06T18:19:57.567Z,24.23
2023-02-06T18:22:26.173Z,25.83
2023-02-06T18:24:53.351Z,24.90
2023-02-06T18:27:20.755Z,25.20
2023-02-06T18:29:52.185Z,27.58
2023-02-06T18:32:19.409Z,22.52
2023-02-06T18:34:47.110Z,28.48
2023-02-06T18:37:14.926Z,28.85
2023-02-06T18:39:43.559Z,31.38
2023-02-06T18:42:11.367Z,25.65
2023-02-06T18:44:38.620Z,24.20
2023-02-06T18:47:05.837Z,22.55
2023-02-06T18:49:33.708Z,25.33
2023-02-06T18:52:01.019Z,24.05
2023-02-06T18:54:28.154Z,19.58
2023-02-06T18:56:56.743Z,23.90
2023-02-06T18:59:24.185Z,17.75
2023-02-06T19:01:51.292Z,20.90
2023-02-06T19:04:18.622Z,21.60
2023-02-06T19:06:46.760Z,17.20
2023-02-06T19:09:13.922Z,17.30
2023-02-06T19:11:42.402Z,19.42
2023-02-06T19:14:14.467Z,19.80
2023-02-06T19:16:42.206Z,18.92
2023-02-06T19:19:10.601Z,20.40
2023-02-06T19:21:38.150Z,17.02
2023-02-06T19:24:06.302Z,19.23
2023-02-06T19:26:33.432Z,25.40
2023-02-06T19:29:00.795Z,19.67
2023-02-06T19:31:29.452Z,18.90
2023-02-06T19:34:00.358Z,15.27
2023-02-06T19:36:29.052Z,20.02
2023-02-06T19:38:57.731Z,20.83
2023-02-06T19:41:26.348Z,20.67
2023-02-06T19:43:55.090Z,22.63
2023-02-06T19:46:25.225Z,23.60
2023-02-06T19:48:54.984Z,27.35
2023-02-06T19:51:24.108Z,19.15
2023-02-06T19:53:52.630Z,23.08
2023-02-06T19:56:22.537Z,21.88
2023-02-06T19:58:54.070Z,24.95
2023-02-06T20:01:21.472Z,20.02
2023-02-06T20:03:48.833Z,18.13
2023-02-06T20:06:18.722Z,27.90
2023-02-06T20:08:46.539Z,23.30
2023-02-06T20:11:15.707Z,22.63
2023-02-06T20:13:43.387Z,25.13
2023-02-06T20:16:15.627Z,20.42
2023-02-06T20:18:42.781Z,26.30
2023-02-06T20:21:21.672Z,25.23
2023-02-06T20:23:49.173Z,23.48
2023-02-06T20:26:17.576Z,24.92
2023-02-06T20:28:45.009Z,22.95
2023-02-06T20:31:12.660Z,27.95
2023-02-06T20:33:39.872Z,22.60
2023-02-06T20:36:08.721Z,30.10
2023-02-06T20:38:37.486Z,29.13
2023-02-06T20:41:06.465Z,33.35
2023-02-06T20:43:35.444Z,31.48
2023-02-06T20:46:05.451Z,21.30
2023-02-06T20:48:32.637Z,24.98
2023-02-06T20:51:00.497Z,27.45
2023-02-06T20:53:27.543Z,29.42
2023-02-06T20:55:56.264Z,24.83
2023-02-06T20:58:23.498Z,28.95
2023-02-06T21:00:50.515Z,35.55
2023-02-06T21:03:18.013Z,23.55
2023-02-06T21:05:45.134Z,28.30
2023-02-06T21:08:12.122Z,22.10
2023-02-06T21:10:39.434Z,19.85
2023-02-06T21:13:07.863Z,22.02
2023-02-06T21:15:34.960Z,23.10
2023-02-06T21:18:02.081Z,19.63
2023-02-06T21:20:29.146Z,21.25
2023-02-06T21:22:56.242Z,22.23
2023-02-06T21:25:23.343Z,27.40
2023-02-06T21:27:50.606Z,22.23
2023-02-06T21:30:19.225Z,29.20
2023-02-06T21:32:46.247Z,23.77
2023-02-06T21:35:13.373Z,28.20
2023-02-06T21:37:40.442Z,25.40
2023-02-06T21:40:08.336Z,25.80
2023-02-06T21:42:35.621Z,25.42
2023-02-06T21:45:03.692Z,20.33
2023-02-06T21:47:32.623Z,21.15
2023-02-06T21:49:59.733Z,20.48
2023-02-06T21:52:26.816Z,20.75
2023-02-06T21:54:54.416Z,23.73
2023-02-06T21:57:21.546Z,29.67
2023-02-06T21:59:48.533Z,29.00
2023-02-06T22:02:15.576Z,27.40
2023-02-06T22:04:47.236Z,28.38
2023-02-06T22:07:14.270Z,18.40
2023-02-06T22:09:41.406Z,24.77
2023-02-06T22:12:09.051Z,23.65
2023-02-06T22:14:36.145Z,24.95
2023-02-06T22:17:03.204Z,31.55
2023-02-06T22:19:31.004Z,40.28
2023-02-06T22:21:59.469Z,40.70
2023-02-06T22:24:26.593Z,38.15
2023-02-06T22:26:53.746Z,35.67
2023-02-06T22:29:20.925Z,32.92
2023-02-06T22:31:48.035Z,25.52
2023-02-06T22:34:17.084Z,30.90
2023-02-06T22:36:44.229Z,36.78
2023-02-06T22:39:14.402Z,30.73
2023-02-06T22:41:43.692Z,31.30
2023-02-06T22:44:11.343Z,36.08
2023-02-06T22:46:39.769Z,36.65
2023-02-06T22:49:08.377Z,35.00
2023-02-06T22:51:36.308Z,38.08
2023-02-06T22:54:04.238Z,31.63
2023-02-06T22:56:34.454Z,34.97
2023-02-06T22:59:04.144Z,32.63
2023-02-06T23:01:33.225Z,26.30
2023-02-06T23:04:01.600Z,26.42
2023-02-06T23:06:29.722Z,32.63
2023-02-06T23:08:57.239Z,28.52
2023-02-06T23:11:25.100Z,28.65
2023-02-06T23:13:55.292Z,24.33
2023-02-06T23:16:23.625Z,24.25
2023-02-06T23:18:50.965Z,26.73
2023-02-06T23:21:20.129Z,24.38
2023-02-06T23:23:47.412Z,22.40
2023-02-06T23:26:15.823Z,30.77
2023-02-06T23:28:43.229Z,32.58
2023-02-06T23:31:12.261Z,28.65
2023-02-06T23:33:39.488Z,20.38
2023-02-06T23:36:09.542Z,23.48
2023-02-06T23:38:36.763Z,21.85
2023-02-06T23:41:07.425Z,30.48
2023-02-06T23:43:34.856Z,22.17
2023-02-06T23:46:02.084Z,23.83
2023-02-06T23:48:31.007Z,32.63
2023-02-06T23:50:58.300Z,25.60
2023-02-06T23:53:25.833Z,21.98
2023-02-06T23:55:53.229Z,32.55
2023-02-06T23:58:20.192Z,24.08
